Time;durP1;ratioP1;P1;durP2;ratioP2;P2;SDS_P1;SDS_P2;PMS_P1;PMS_P2;Temp;Humidity;BMP_temperature;BMP_pressure;BME280_temperature;BME280_humidity;BME280_pressure;Samples;Min_cycle;Max_cycle;Signal;HPM_P1;HPM_P2
2023/12/23 00:03:10;;;;;;;4.10;1.50;;;;;;;1.42;75.18;96346.45;226558;1273;22462;-79
2023/12/23 00:08:14;;;;;;;7.10;1.30;;;;;;;1.43;74.97;96350.74;226494;1274;22531;-79
2023/12/23 00:13:16;;;;;;;2.70;1.40;;;;;;;1.47;74.80;96355.98;226559;1272;22695;-81
2023/12/23 00:18:18;;;;;;;3.90;1.50;;;;;;;1.50;74.57;96366.98;226529;1272;22557;-78
2023/12/23 00:23:20;;;;;;;2.60;0.90;;;;;;;1.50;74.16;96375.95;226519;1269;24262;-79
2023/12/23 00:28:26;;;;;;;3.70;1.30;;;;;;;1.49;74.32;96382.83;226473;1273;22527;-79
2023/12/23 00:33:28;;;;;;;2.40;0.90;;;;;;;1.50;73.73;96376.86;226565;1273;25414;-79
2023/12/23 00:38:31;;;;;;;2.30;0.80;;;;;;;1.51;73.29;96372.75;226546;1273;22572;-79
2023/12/23 00:43:34;;;;;;;2.20;0.70;;;;;;;1.53;72.81;96377.58;226554;1271;22547;-80
2023/12/23 00:48:37;;;;;;;2.20;0.70;;;;;;;1.53;72.46;96378.80;226607;1273;22547;-80
2023/12/23 00:53:40;;;;;;;3.30;0.90;;;;;;;1.50;72.72;96377.08;226620;1273;24256;-79
2023/12/23 00:58:42;;;;;;;3.00;1.30;;;;;;;1.46;72.70;96367.63;226607;1273;22625;-80
2023/12/23 01:03:44;;;;;;;2.90;0.80;;;;;;;1.43;72.86;96355.27;226515;1272;22547;-80
2023/12/23 01:08:47;;;;;;;4.40;0.90;;;;;;;1.40;73.04;96357.45;226380;1269;22547;-80
2023/12/23 01:13:49;;;;;;;5.40;0.90;;;;;;;1.38;73.34;96370.48;226562;1270;22542;-79
2023/12/23 01:18:51;;;;;;;4.90;1.20;;;;;;;1.37;73.45;96363.66;226617;1272;22523;-79
2023/12/23 01:23:53;;;;;;;4.20;1.20;;;;;;;1.40;73.53;96377.58;226548;1269;22538;-80
2023/12/23 01:29:00;;;;;;;1.20;0.60;;;;;;;1.42;73.81;96357.78;226593;1273;24272;-80
2023/12/23 01:34:02;;;;;;;4.30;1.20;;;;;;;1.42;73.93;96381.19;226512;1269;22624;-79
2023/12/23 01:39:04;;;;;;;5.80;0.80;;;;;;;1.40;74.92;96409.64;226585;1272;22550;-79
2023/12/23 01:44:06;;;;;;;2.60;0.80;;;;;;;1.35;75.62;96421.56;226606;1263;22733;-79
2023/12/23 01:49:09;;;;;;;2.20;0.90;;;;;;;1.24;76.25;96420.83;226542;1270;22540;-79
2023/12/23 01:54:11;;;;;;;1.10;0.70;;;;;;;1.15;76.76;96430.61;226580;1269;22536;-79
2023/12/23 01:59:14;;;;;;;1.40;0.70;;;;;;;1.07;77.69;96439.40;226538;1270;22544;-79
2023/12/23 02:04:16;;;;;;;1.20;0.80;;;;;;;0.97;78.45;96446.31;226606;1270;22707;-79
2023/12/23 02:09:18;;;;;;;1.90;0.90;;;;;;;0.87;78.86;96446.05;226513;1269;22561;-79
2023/12/23 02:15:05;;;;;;;2.70;1.20;;;;;;;0.78;79.39;96435.12;226558;1263;22553;-79
2023/12/23 02:20:08;;;;;;;2.20;1.00;;;;;;;0.72;81.71;96406.77;226020;1251;25132;-79
2023/12/23 02:25:10;;;;;;;2.40;1.20;;;;;;;0.70;81.02;96423.81;226555;1273;23351;-79
2023/12/23 02:30:15;;;;;;;1.90;0.90;;;;;;;0.67;80.99;96442.85;226545;1273;22554;-80
2023/12/23 02:35:19;;;;;;;2.60;1.40;;;;;;;0.64;81.04;96449.77;226588;1271;22551;-78
2023/12/23 02:40:21;;;;;;;1.60;1.10;;;;;;;0.63;81.30;96453.23;226409;1270;24257;-79
2023/12/23 02:45:23;;;;;;;2.40;1.00;;;;;;;0.58;81.24;96452.14;226521;1270;22578;-78
2023/12/23 02:50:25;;;;;;;1.70;1.00;;;;;;;0.47;81.16;96454.94;226578;1259;22540;-77
2023/12/23 02:55:28;;;;;;;1.40;0.80;;;;;;;0.36;81.39;96464.07;226569;1251;22548;-79
2023/12/23 03:00:30;;;;;;;2.40;0.50;;;;;;;0.26;81.42;96480.48;226561;1270;22547;-81
2023/12/23 03:05:32;;;;;;;1.40;0.80;;;;;;;0.18;81.51;96493.19;226634;1272;25255;-78
2023/12/23 03:10:34;;;;;;;0.80;0.80;;;;;;;0.11;81.91;96504.05;226584;1267;23750;-79
2023/12/23 03:15:36;;;;;;;0.70;0.70;;;;;;;0.05;81.99;96516.86;226559;1270;22561;-79
2023/12/23 03:20:38;;;;;;;0.80;0.70;;;;;;;0.04;82.20;96531.23;226635;1272;22568;-80
2023/12/23 03:25:40;;;;;;;0.50;0.50;;;;;;;0.06;82.51;96542.91;226554;1270;22564;-80
2023/12/23 03:30:43;;;;;;;0.80;0.80;;;;;;;0.10;82.56;96552.35;226556;1274;22528;-79
2023/12/23 03:35:45;;;;;;;0.50;0.50;;;;;;;0.11;82.67;96560.80;226572;1272;22655;-79
2023/12/23 03:40:47;;;;;;;1.70;0.40;;;;;;;0.13;82.52;96562.15;226606;1272;22611;-78
2023/12/23 03:45:49;;;;;;;1.50;0.60;;;;;;;0.13;82.71;96564.72;226604;1272;22565;-80
2023/12/23 03:50:51;;;;;;;2.20;0.60;;;;;;;0.10;82.47;96575.70;226625;1269;22551;-80
2023/12/23 03:55:53;;;;;;;0.60;0.40;;;;;;;0.09;82.38;96587.17;226629;1266;25452;-79
2023/12/23 04:00:55;;;;;;;1.70;0.60;;;;;;;0.11;82.52;96605.13;226580;1269;22545;-80
2023/12/23 04:05:57;;;;;;;1.60;0.70;;;;;;;0.13;82.68;96608.52;226542;1269;22555;-79
2023/12/23 04:10:59;;;;;;;1.30;0.30;;;;;;;0.17;82.47;96610.52;226580;1272;22682;-79
2023/12/23 04:16:03;;;;;;;1.10;0.40;;;;;;;0.21;82.35;96632.16;226606;1251;22609;-79
2023/12/23 04:21:09;;;;;;;2.00;0.50;;;;;;;0.25;81.91;96646.80;226939;1272;22536;-79
2023/12/23 04:26:14;;;;;;;1.40;0.60;;;;;;;0.32;81.33;96668.80;226592;1269;22541;-80
2023/12/23 04:31:16;;;;;;;1.10;0.60;;;;;;;0.42;80.54;96692.27;227072;1254;22556;-79
2023/12/23 04:36:21;;;;;;;1.30;0.40;;;;;;;0.49;79.71;96714.10;226506;1272;22557;-80
2023/12/23 04:41:24;;;;;;;1.40;0.40;;;;;;;0.53;78.97;96734.51;226537;1270;22557;-79
2023/12/23 04:46:26;;;;;;;2.30;0.40;;;;;;;0.54;78.70;96743.56;226601;1272;22546;-81
2023/12/23 04:51:28;;;;;;;1.80;0.40;;;;;;;0.52;78.75;96760.42;226554;1272;22545;-78
2023/12/23 04:56:31;;;;;;;1.20;0.60;;;;;;;0.50;78.67;96762.75;226603;1272;22683;-78
2023/12/23 05:01:33;;;;;;;3.00;0.50;;;;;;;0.46;78.58;96770.75;226565;1273;22670;-80
2023/12/23 05:06:35;;;;;;;1.90;0.40;;;;;;;0.43;78.53;96765.80;226531;1273;22543;-78
2023/12/23 05:11:38;;;;;;;1.80;0.60;;;;;;;0.38;78.44;96778.49;226528;1272;24237;-79
2023/12/23 05:16:40;;;;;;;3.40;1.00;;;;;;;0.33;78.48;96798.84;226605;1272;22576;-78
2023/12/23 05:21:43;;;;;;;1.00;0.60;;;;;;;0.30;79.06;96805.67;226532;1273;22540;-80
2023/12/23 05:26:45;;;;;;;1.90;0.90;;;;;;;0.20;81.06;96844.73;226544;1272;22734;-78
2023/12/23 05:31:48;;;;;;;0.70;0.60;;;;;;;0.09;81.52;96859.90;226506;1270;25467;-78
2023/12/23 05:36:50;;;;;;;2.00;1.00;;;;;;;0.08;81.60;96872.56;226555;1273;23310;-80
2023/12/23 05:41:53;;;;;;;0.80;0.40;;;;;;;0.09;81.58;96888.05;226513;1269;22808;-78
2023/12/23 05:46:55;;;;;;;1.20;0.40;;;;;;;0.09;81.44;96902.16;226575;1273;24203;-78
2023/12/23 05:51:57;;;;;;;1.90;0.50;;;;;;;0.11;81.26;96917.14;226580;1272;22586;-79
2023/12/23 05:56:59;;;;;;;1.50;0.50;;;;;;;0.14;80.87;96914.81;226482;1270;23195;-78
2023/12/23 06:02:01;;;;;;;0.80;0.40;;;;;;;0.16;80.39;96930.33;226539;1271;22533;-78
2023/12/23 06:07:03;;;;;;;1.70;0.40;;;;;;;0.17;79.62;96929.38;226462;1272;22541;-79
2023/12/23 06:12:05;;;;;;;1.00;0.60;;;;;;;0.15;79.27;96938.54;226497;1272;25307;-79
2023/12/23 06:17:08;;;;;;;1.40;0.30;;;;;;;0.12;78.13;96952.30;226559;1272;22530;-79
2023/12/23 06:22:11;;;;;;;0.90;0.50;;;;;;;0.03;77.73;96969.60;226422;1269;22545;-79
2023/12/23 06:27:13;;;;;;;1.40;0.30;;;;;;;-0.07;77.35;96984.88;226482;1273;22695;-77
2023/12/23 06:32:15;;;;;;;1.30;0.30;;;;;;;-0.14;76.87;97010.30;226474;1267;22689;-79
2023/12/23 06:37:17;;;;;;;1.00;0.50;;;;;;;-0.20;76.76;97020.10;226465;1274;22537;-78
2023/12/23 06:42:19;;;;;;;1.40;0.50;;;;;;;-0.26;76.86;97028.45;226502;1269;22603;-79
2023/12/23 06:47:21;;;;;;;1.30;0.60;;;;;;;-0.28;76.95;97034.30;226603;1272;22534;-78
2023/12/23 06:52:23;;;;;;;1.80;0.40;;;;;;;-0.29;77.07;97047.70;226556;1272;22815;-79
2023/12/23 06:57:25;;;;;;;0.60;0.30;;;;;;;-0.28;76.96;97062.81;226508;1272;22570;-79
2023/12/23 07:02:27;;;;;;;2.70;0.50;;;;;;;-0.26;77.01;97064.98;226557;1264;22568;-79
2023/12/23 07:07:29;;;;;;;1.60;0.50;;;;;;;-0.24;76.99;97071.05;226563;1273;22715;-79
2023/12/23 07:12:32;;;;;;;1.70;0.70;;;;;;;-0.24;77.16;97076.60;226518;1272;22602;-78
2023/12/23 07:17:35;;;;;;;2.10;0.50;;;;;;;-0.23;76.94;97087.83;226505;1263;22552;-79
2023/12/23 07:22:43;;;;;;;1.40;0.40;;;;;;;-0.16;77.02;97093.54;226532;1272;22537;-79
2023/12/23 07:27:45;;;;;;;1.30;0.90;;;;;;;-0.12;77.05;97099.79;226537;1270;22537;-79
2023/12/23 07:32:47;;;;;;;0.30;0.30;;;;;;;-0.09;76.67;97100.93;226480;1272;22581;-78
2023/12/23 07:37:50;;;;;;;0.90;0.40;;;;;;;-0.06;76.43;97097.59;226446;1272;22597;-78
2023/12/23 07:42:52;;;;;;;1.90;0.80;;;;;;;-0.04;76.34;97093.64;226493;1267;22549;-79
2023/12/23 07:47:55;;;;;;;0.80;0.70;;;;;;;-0.07;76.61;97095.48;226161;1251;25413;-80
2023/12/23 07:52:57;;;;;;;2.10;0.90;;;;;;;-0.07;76.41;97084.02;226175;1266;24636;-77
2023/12/23 07:57:59;;;;;;;2.60;0.70;;;;;;;-0.02;76.47;97087.38;226148;1250;22604;-78
2023/12/23 08:03:01;;;;;;;3.00;1.40;;;;;;;0.04;76.52;97086.84;226309;1267;22498;-78
2023/12/23 08:08:04;;;;;;;2.50;1.00;;;;;;;0.13;76.66;97085.21;226226;1263;24269;-77
2023/12/23 08:13:08;;;;;;;2.80;1.30;;;;;;;0.21;76.38;97087.43;226089;1266;22574;-76
2023/12/23 08:18:11;;;;;;;4.20;1.00;;;;;;;0.27;76.34;97083.27;226191;1250;22541;-77
2023/12/23 08:23:14;;;;;;;3.50;1.20;;;;;;;0.34;76.20;97081.14;226230;1271;22530;-76
2023/12/23 08:28:16;;;;;;;2.30;0.80;;;;;;;0.43;76.26;97082.84;226250;1269;22544;-76
2023/12/23 08:33:18;;;;;;;1.50;0.50;;;;;;;0.53;76.52;97081.69;226314;1266;22602;-75
2023/12/23 08:38:20;;;;;;;2.80;0.60;;;;;;;0.62;76.43;97087.60;226154;1270;22566;-76
2023/12/23 08:43:22;;;;;;;3.40;0.60;;;;;;;0.71;76.15;97090.98;226183;1267;22574;-75
2023/12/23 08:48:24;;;;;;;3.00;1.00;;;;;;;0.75;75.79;97082.61;226177;1269;22581;-75
2023/12/23 08:53:26;;;;;;;2.60;0.60;;;;;;;0.79;75.47;97079.77;226167;1273;22527;-75
2023/12/23 08:58:30;;;;;;;2.00;0.70;;;;;;;0.85;75.73;97082.13;225971;1260;22767;-75
2023/12/23 09:03:32;;;;;;;2.30;0.80;;;;;;;0.92;75.53;97086.92;226043;1273;22544;-73
2023/12/23 09:08:34;;;;;;;3.90;1.00;;;;;;;0.97;75.70;97090.55;226042;1272;22650;-75
2023/12/23 09:13:37;;;;;;;2.90;1.00;;;;;;;1.03;75.35;97090.27;226218;1272;22564;-76
2023/12/23 09:18:39;;;;;;;2.80;1.40;;;;;;;1.08;75.04;97092.80;226268;1269;22536;-77
2023/12/23 09:23:41;;;;;;;4.40;1.90;;;;;;;1.10;74.92;97093.05;226305;1274;22544;-77
2023/12/23 09:28:43;;;;;;;2.70;1.40;;;;;;;1.11;74.58;97091.08;226244;1267;22553;-75
2023/12/23 09:33:45;;;;;;;3.20;1.40;;;;;;;1.09;74.56;97077.07;226261;1272;22543;-76
2023/12/23 09:38:48;;;;;;;4.50;1.70;;;;;;;1.06;74.02;97074.09;226287;1253;22548;-75
2023/12/23 09:43:51;;;;;;;3.20;1.60;;;;;;;1.06;74.31;97065.61;226330;1267;22578;-76
2023/12/23 09:48:54;;;;;;;4.10;1.60;;;;;;;1.12;74.35;97055.45;226363;1273;22681;-76
2023/12/23 09:53:58;;;;;;;5.20;1.70;;;;;;;1.16;74.07;97039.73;226368;1272;22562;-75
2023/12/23 09:59:00;;;;;;;4.60;2.00;;;;;;;1.18;73.71;97031.04;226217;1263;22651;-76
2023/12/23 10:04:02;;;;;;;6.10;2.80;;;;;;;1.20;73.35;97023.82;226176;1274;22935;-78
2023/12/23 10:09:04;;;;;;;6.20;3.00;;;;;;;1.25;73.96;97019.48;226189;1273;22510;-77
2023/12/23 10:14:06;;;;;;;5.50;2.60;;;;;;;1.31;73.74;97006.75;226261;1254;22557;-77
2023/12/23 10:19:09;;;;;;;7.90;3.30;;;;;;;1.36;73.64;96982.11;226099;1258;24596;-76
2023/12/23 10:24:11;;;;;;;5.60;2.40;;;;;;;1.41;73.62;96977.86;226232;1251;22536;-76
2023/12/23 10:29:16;;;;;;;6.70;2.60;;;;;;;1.52;73.65;96972.63;226274;1259;22728;-73
2023/12/23 10:34:21;;;;;;;7.30;3.00;;;;;;;1.58;72.90;96964.48;226210;1273;22543;-74
2023/12/23 10:39:27;;;;;;;6.60;3.20;;;;;;;1.62;72.84;96954.98;226473;1260;23039;-75
2023/12/23 10:44:31;;;;;;;8.20;3.00;;;;;;;1.67;72.15;96949.88;226217;1260;22954;-76
2023/12/23 10:49:35;;;;;;;7.10;2.30;;;;;;;1.72;72.03;96951.08;226220;1256;22867;-73
2023/12/23 10:54:37;;;;;;;4.00;1.50;;;;;;;1.76;71.24;96939.89;226303;1273;22548;-73
2023/12/23 10:59:39;;;;;;;4.70;2.30;;;;;;;1.80;70.90;96934.02;226123;1263;23028;-73
2023/12/23 11:04:46;;;;;;;5.70;2.20;;;;;;;1.85;70.65;96930.09;226046;1266;25249;-76
2023/12/23 11:09:58;;;;;;;4.90;2.20;;;;;;;1.93;70.65;96930.71;226120;1267;23071;-74
2023/12/23 11:15:02;;;;;;;5.30;1.50;;;;;;;2.01;70.73;96923.85;226037;1260;22700;-74
2023/12/23 11:20:06;;;;;;;6.60;1.40;;;;;;;2.07;70.59;96924.41;226035;1274;23005;-74
2023/12/23 11:25:38;;;;;;;3.00;1.40;;;;;;;2.11;70.91;96919.73;226882;1259;93366;-75
2023/12/23 11:30:47;;;;;;;3.50;1.10;;;;;;;2.16;71.36;96906.70;226183;1250;25290;-74
2023/12/23 11:35:53;;;;;;;1.90;0.90;;;;;;;2.18;71.65;96911.50;226218;1260;22537;-74
2023/12/23 11:40:59;;;;;;;2.40;1.40;;;;;;;2.14;71.99;96918.70;226193;1272;22610;-75
2023/12/23 11:46:01;;;;;;;4.40;1.10;;;;;;;2.08;72.54;96917.10;226200;1255;22545;-74
2023/12/23 11:51:06;;;;;;;3.40;1.40;;;;;;;2.02;72.96;96913.53;226285;1257;22709;-75
2023/12/23 11:56:09;;;;;;;5.10;1.30;;;;;;;1.96;73.85;96917.36;226960;1257;25383;-75
2023/12/23 12:01:11;;;;;;;2.70;1.10;;;;;;;1.88;74.10;96921.92;226522;1274;22547;-78
2023/12/23 12:06:14;;;;;;;2.90;1.20;;;;;;;1.81;74.78;96922.60;226042;1266;22561;-75
2023/12/23 12:11:17;;;;;;;2.10;1.10;;;;;;;1.69;75.34;96923.64;226354;1273;22605;-74
2023/12/23 12:16:19;;;;;;;3.80;1.20;;;;;;;1.60;75.98;96928.35;226435;1272;24228;-75
2023/12/23 12:21:21;;;;;;;3.40;1.10;;;;;;;1.50;76.55;96932.80;226539;1273;22931;-74
2023/12/23 12:26:24;;;;;;;1.20;0.70;;;;;;;1.38;77.24;96938.89;226413;1269;23435;-75
2023/12/23 12:31:26;;;;;;;0.90;0.70;;;;;;;1.27;78.17;96941.65;226425;1267;25258;-74
2023/12/23 12:36:28;;;;;;;1.10;0.90;;;;;;;1.15;78.88;96935.45;226433;1274;22544;-75
2023/12/23 12:41:31;;;;;;;2.60;1.10;;;;;;;1.09;79.46;96934.95;226509;1269;22530;-75
2023/12/23 12:46:36;;;;;;;1.60;0.90;;;;;;;1.05;79.63;96947.45;226415;1269;24713;-74
2023/12/23 12:51:39;;;;;;;1.40;1.00;;;;;;;0.99;79.82;96945.92;226526;1272;22544;-76
2023/12/23 12:56:41;;;;;;;2.20;1.30;;;;;;;0.94;80.23;96942.83;226408;1273;22548;-74
2023/12/23 13:01:44;;;;;;;2.90;1.60;;;;;;;0.89;80.51;96952.23;226531;1274;22533;-76
2023/12/23 13:06:46;;;;;;;2.20;1.70;;;;;;;0.84;80.53;96948.83;226496;1274;22559;-74
2023/12/23 13:11:48;;;;;;;1.70;1.60;;;;;;;0.78;81.07;96955.60;226440;1272;22574;-74
2023/12/23 13:16:50;;;;;;;2.60;1.60;;;;;;;0.68;81.36;96952.52;226479;1273;22539;-75
2023/12/23 13:21:52;;;;;;;4.30;2.90;;;;;;;0.57;82.05;96961.58;226409;1272;22657;-75
2023/12/23 13:26:55;;;;;;;4.40;2.70;;;;;;;0.47;83.07;96958.92;226426;1266;22544;-76
2023/12/23 13:31:57;;;;;;;5.00;3.00;;;;;;;0.37;84.42;96969.36;226373;1269;22641;-76
2023/12/23 13:36:59;;;;;;;5.80;3.40;;;;;;;0.33;84.94;96973.45;226446;1273;22559;-76
2023/12/23 13:42:01;;;;;;;8.60;4.00;;;;;;;0.31;84.76;96976.58;226423;1274;24235;-76
2023/12/23 13:47:05;;;;;;;6.30;3.80;;;;;;;0.31;84.81;96981.28;226398;1273;22555;-74
2023/12/23 13:52:07;;;;;;;6.70;3.90;;;;;;;0.27;84.48;96980.11;226379;1274;22603;-76
2023/12/23 13:57:09;;;;;;;6.90;3.60;;;;;;;0.23;84.17;96986.13;226536;1272;22609;-76
2023/12/23 14:02:12;;;;;;;7.70;3.40;;;;;;;0.22;84.28;96984.66;226452;1274;22552;-75
2023/12/23 14:07:14;;;;;;;5.20;3.40;;;;;;;0.21;84.64;96984.25;226413;1273;22549;-74
2023/12/23 14:12:16;;;;;;;4.40;2.40;;;;;;;0.21;85.20;96990.65;226451;1273;22557;-75
2023/12/23 14:17:18;;;;;;;3.60;2.60;;;;;;;0.20;84.99;97003.11;226346;1274;23015;-75
2023/12/23 14:22:20;;;;;;;4.20;3.20;;;;;;;0.17;85.23;97002.56;226394;1274;24320;-74
2023/12/23 14:27:22;;;;;;;5.80;3.70;;;;;;;0.19;85.39;97000.06;226518;1272;23833;-74
2023/12/23 14:32:24;;;;;;;4.90;3.40;;;;;;;0.24;85.69;97008.33;226231;1274;22642;-74
2023/12/23 14:37:27;;;;;;;5.40;3.50;;;;;;;0.28;85.62;97009.65;226462;1274;22544;-75
2023/12/23 14:42:39;;;;;;;5.70;3.90;;;;;;;0.32;85.65;97019.63;226479;1272;22673;-76
2023/12/23 14:47:43;;;;;;;6.40;5.40;;;;;;;0.36;85.53;97028.67;226551;1274;22563;-75
2023/12/23 14:52:47;;;;;;;8.30;5.70;;;;;;;0.36;85.37;97021.40;226389;1272;22536;-75
2023/12/23 14:57:50;;;;;;;11.20;7.40;;;;;;;0.35;85.16;97015.23;226382;1274;22540;-76
2023/12/23 15:02:52;;;;;;;11.30;7.70;;;;;;;0.35;85.09;97018.74;226464;1273;22630;-75
2023/12/23 15:07:55;;;;;;;10.50;8.00;;;;;;;0.36;85.19;97026.30;226606;1274;22636;-76
2023/12/23 15:12:57;;;;;;;14.50;9.50;;;;;;;0.34;85.21;97032.64;226540;1274;23855;-76
2023/12/23 15:17:59;;;;;;;11.00;7.70;;;;;;;0.37;85.30;97034.87;226658;1251;22577;-75
2023/12/23 15:23:01;;;;;;;12.10;8.10;;;;;;;0.37;85.41;97045.39;226650;1273;22530;-75
2023/12/23 15:28:03;;;;;;;12.40;7.30;;;;;;;0.37;85.63;97051.83;226549;1274;22562;-75
2023/12/23 15:33:05;;;;;;;10.00;7.10;;;;;;;0.35;85.78;97063.97;226471;1271;22542;-75
2023/12/23 15:38:09;;;;;;;11.40;7.30;;;;;;;0.35;85.67;97074.64;226363;1274;22554;-75
2023/12/23 15:43:11;;;;;;;10.10;6.90;;;;;;;0.38;86.05;97074.59;226580;1274;22563;-74
2023/12/23 15:48:16;;;;;;;8.30;6.30;;;;;;;0.37;85.83;97081.08;226381;1273;25288;-75
2023/12/23 15:53:20;;;;;;;8.50;5.70;;;;;;;0.35;85.77;97089.06;226436;1274;22567;-74
2023/12/23 15:58:22;;;;;;;8.20;5.50;;;;;;;0.34;86.11;97095.85;226540;1270;25282;-75
2023/12/23 16:03:24;;;;;;;9.60;5.70;;;;;;;0.34;86.28;97102.80;226586;1273;24272;-74
2023/12/23 16:08:26;;;;;;;7.60;5.10;;;;;;;0.35;86.16;97109.13;226530;1267;22640;-77
2023/12/23 16:13:28;;;;;;;5.60;3.60;;;;;;;0.40;86.33;97112.11;226588;1267;22597;-75
2023/12/23 16:18:30;;;;;;;6.00;4.20;;;;;;;0.46;86.41;97125.63;226541;1274;23306;-74
2023/12/23 16:23:32;;;;;;;6.60;5.00;;;;;;;0.50;86.65;97139.79;226461;1274;22568;-74
2023/12/23 16:28:35;;;;;;;11.10;8.00;;;;;;;0.49;86.73;97164.42;226443;1273;22604;-74
2023/12/23 16:33:37;;;;;;;10.70;8.00;;;;;;;0.47;86.47;97174.20;226540;1274;22563;-74
2023/12/23 16:38:41;;;;;;;9.10;6.30;;;;;;;0.43;86.30;97176.56;226546;1269;22550;-74
2023/12/23 16:43:43;;;;;;;7.90;5.40;;;;;;;0.36;86.63;97185.27;226604;1270;22538;-74
2023/12/23 16:48:45;;;;;;;7.70;5.00;;;;;;;0.29;86.40;97204.27;226438;1267;22546;-74
2023/12/23 16:53:47;;;;;;;7.10;4.90;;;;;;;0.23;86.60;97211.98;226395;1269;22536;-75
2023/12/23 16:58:50;;;;;;;8.50;5.10;;;;;;;0.18;86.57;97199.80;226504;1274;24253;-75
2023/12/23 17:03:52;;;;;;;6.90;4.50;;;;;;;0.14;86.45;97206.30;226551;1274;23176;-75
2023/12/23 17:08:56;;;;;;;8.90;5.20;;;;;;;0.08;86.68;97224.60;226495;1274;22540;-75
2023/12/23 17:14:00;;;;;;;6.80;3.90;;;;;;;0.03;86.72;97228.86;226554;1273;24235;-74
2023/12/23 17:19:04;;;;;;;6.70;3.90;;;;;;;-0.01;86.75;97246.15;226312;1274;22541;-74
2023/12/23 17:24:06;;;;;;;6.00;4.00;;;;;;;0.01;86.63;97250.52;226389;1269;22647;-74
2023/12/23 17:29:08;;;;;;;7.40;4.60;;;;;;;0.06;86.66;97253.83;226500;1267;23322;-74
2023/12/23 17:34:10;;;;;;;7.90;5.60;;;;;;;0.09;86.91;97255.40;226409;1271;22581;-73
2023/12/23 17:39:13;;;;;;;9.80;6.40;;;;;;;0.12;86.53;97265.11;226410;1270;24649;-73
2023/12/23 17:44:17;;;;;;;10.00;6.60;;;;;;;0.16;86.52;97272.02;226494;1274;22626;-77
2023/12/23 17:49:19;;;;;;;11.10;7.50;;;;;;;0.18;86.92;97283.39;226519;1273;24250;-74
2023/12/23 17:54:21;;;;;;;13.30;8.90;;;;;;;0.20;86.82;97288.42;226425;1273;22553;-74
2023/12/23 17:59:23;;;;;;;13.60;8.80;;;;;;;0.23;86.78;97295.54;226417;1270;22549;-74
2023/12/23 18:04:29;;;;;;;13.70;10.00;;;;;;;0.25;86.95;97296.20;226528;1274;22529;-74
2023/12/23 18:09:31;;;;;;;14.70;10.50;;;;;;;0.25;86.95;97302.20;226526;1271;22560;-74
2023/12/23 18:14:33;;;;;;;16.30;10.50;;;;;;;0.27;86.95;97287.28;226401;1267;22566;-74
2023/12/23 18:19:38;;;;;;;15.30;10.80;;;;;;;0.31;87.17;97301.41;226397;1270;22548;-74
2023/12/23 18:24:41;;;;;;;12.60;9.60;;;;;;;0.36;86.98;97319.97;226606;1273;22544;-75
2023/12/23 18:29:43;;;;;;;14.30;10.10;;;;;;;0.37;86.98;97325.75;226475;1274;22543;-75
2023/12/23 18:34:46;;;;;;;17.40;11.30;;;;;;;0.38;86.72;97331.54;226457;1273;22540;-74
2023/12/23 18:39:53;;;;;;;14.80;9.80;;;;;;;0.38;86.93;97341.18;226529;1267;22562;-75
2023/12/23 18:44:59;;;;;;;12.70;7.70;;;;;;;0.37;86.96;97345.10;226570;1273;22554;-74
2023/12/23 18:50:01;;;;;;;9.90;6.60;;;;;;;0.37;87.20;97351.92;226468;1272;22544;-75
2023/12/23 18:55:05;;;;;;;10.60;6.10;;;;;;;0.37;87.37;97349.13;226547;1273;24249;-75
2023/12/23 19:00:09;;;;;;;8.30;5.60;;;;;;;0.39;87.23;97355.31;226645;1269;22592;-75
2023/12/23 19:05:11;;;;;;;9.10;5.60;;;;;;;0.40;87.24;97357.98;226683;1274;22532;-74
2023/12/23 19:10:15;;;;;;;8.40;6.50;;;;;;;0.40;87.15;97359.57;226560;1273;22533;-74
2023/12/23 19:15:17;;;;;;;8.70;5.60;;;;;;;0.40;87.46;97364.23;226565;1270;25274;-74
2023/12/23 19:20:20;;;;;;;10.00;6.30;;;;;;;0.41;87.16;97365.02;226600;1263;22557;-74
2023/12/23 19:25:22;;;;;;;8.90;5.30;;;;;;;0.40;87.24;97371.98;226607;1270;22574;-75
2023/12/23 19:30:25;;;;;;;8.00;5.60;;;;;;;0.43;87.33;97375.20;226555;1266;22579;-75
2023/12/23 19:35:27;;;;;;;7.60;5.60;;;;;;;0.44;87.31;97371.91;226546;1270;24400;-75
2023/12/23 19:40:33;;;;;;;13.20;9.30;;;;;;;0.45;87.59;97374.37;226621;1270;25532;-74
2023/12/23 19:45:37;;;;;;;20.00;13.80;;;;;;;0.47;87.46;97379.38;226507;1272;22559;-75
2023/12/23 19:50:40;;;;;;;13.90;10.40;;;;;;;0.50;87.41;97383.41;226633;1263;22873;-75
2023/12/23 19:55:44;;;;;;;12.40;8.50;;;;;;;0.52;87.48;97392.09;226539;1274;22999;-75
2023/12/23 20:00:48;;;;;;;11.10;7.70;;;;;;;0.52;87.47;97397.72;226602;1273;22551;-75
2023/12/23 20:05:51;;;;;;;11.90;8.00;;;;;;;0.53;87.59;97408.11;226603;1267;22563;-75
2023/12/23 20:10:55;;;;;;;13.50;7.70;;;;;;;0.51;87.60;97415.92;226577;1269;24576;-75
2023/12/23 20:15:59;;;;;;;11.20;7.40;;;;;;;0.46;87.28;97425.27;226476;1273;22539;-75
2023/12/23 20:21:04;;;;;;;12.00;7.60;;;;;;;0.42;87.38;97433.94;226504;1263;25505;-75
2023/12/23 20:26:08;;;;;;;13.80;7.80;;;;;;;0.40;87.17;97435.96;226687;1267;22556;-76
2023/12/23 20:31:17;;;;;;;11.30;7.90;;;;;;;0.39;87.49;97448.14;226440;1272;22602;-76
2023/12/23 20:36:20;;;;;;;13.20;8.20;;;;;;;0.40;87.33;97453.73;226476;1273;22954;-75
2023/12/23 20:41:26;;;;;;;12.50;8.00;;;;;;;0.43;87.33;97450.40;226541;1273;22639;-76
2023/12/23 20:46:29;;;;;;;13.20;7.90;;;;;;;0.45;87.42;97454.61;226448;1273;22547;-75
2023/12/23 20:51:35;;;;;;;13.20;9.90;;;;;;;0.47;87.43;97454.98;226570;1264;22557;-74
2023/12/23 20:56:38;;;;;;;11.00;7.40;;;;;;;0.45;87.34;97458.13;226636;1269;25331;-74
2023/12/23 21:01:42;;;;;;;10.10;7.20;;;;;;;0.43;87.38;97463.17;226632;1272;22672;-75
2023/12/23 21:06:44;;;;;;;13.60;7.70;;;;;;;0.39;87.14;97467.02;226568;1272;22551;-75
2023/12/23 21:11:46;;;;;;;12.10;7.70;;;;;;;0.36;87.42;97467.52;226567;1272;22557;-75
2023/12/23 21:16:51;;;;;;;11.10;6.60;;;;;;;0.33;87.32;97475.22;226478;1270;25305;-75
2023/12/23 21:21:55;;;;;;;13.20;6.60;;;;;;;0.34;87.54;97481.70;226598;1269;24701;-74
2023/12/23 21:26:58;;;;;;;13.70;7.80;;;;;;;0.38;87.72;97490.02;226503;1273;22562;-76
2023/12/23 21:32:01;;;;;;;11.20;6.10;;;;;;;0.39;87.69;97489.05;226492;1272;22567;-75
2023/12/23 21:37:03;;;;;;;10.80;6.30;;;;;;;0.39;87.58;97488.50;226602;1273;22544;-75
2023/12/23 21:42:05;;;;;;;13.20;6.60;;;;;;;0.40;87.61;97498.67;226576;1273;22552;-75
2023/12/23 21:47:08;;;;;;;11.20;6.10;;;;;;;0.40;87.58;97499.52;226535;1273;22547;-75
2023/12/23 21:52:10;;;;;;;17.60;7.80;;;;;;;0.38;87.62;97501.58;226565;1273;24231;-75
2023/12/23 21:57:13;;;;;;;14.20;7.20;;;;;;;0.36;87.48;97502.84;226541;1269;22531;-75
2023/12/23 22:02:18;;;;;;;12.90;6.60;;;;;;;0.35;87.49;97505.27;226569;1269;22587;-75
2023/12/23 22:07:26;;;;;;;15.40;6.30;;;;;;;0.35;87.44;97507.52;226502;1273;22570;-75
2023/12/23 22:12:29;;;;;;;12.90;7.30;;;;;;;0.37;87.71;97518.02;226534;1270;22555;-75
2023/12/23 22:17:32;;;;;;;15.30;8.00;;;;;;;0.37;87.60;97526.58;226497;1269;22637;-75
2023/12/23 22:22:37;;;;;;;13.80;7.20;;;;;;;0.39;87.78;97539.45;226447;1270;22556;-74
2023/12/23 22:27:39;;;;;;;16.80;9.30;;;;;;;0.38;87.67;97543.15;226491;1270;22631;-75
2023/12/23 22:32:41;;;;;;;11.80;7.10;;;;;;;0.37;87.65;97535.96;226517;1272;22554;-75
2023/12/23 22:37:44;;;;;;;11.30;6.80;;;;;;;0.36;87.81;97530.38;226612;1272;22554;-75
2023/12/23 22:42:49;;;;;;;9.30;4.00;;;;;;;0.34;87.92;97523.77;226560;1272;22568;-75
2023/12/23 22:47:52;;;;;;;10.10;4.60;;;;;;;0.29;87.85;97527.06;226704;1272;23024;-75
2023/12/23 22:52:56;;;;;;;6.70;3.40;;;;;;;0.25;88.11;97523.02;226511;1267;25046;-75
2023/12/23 22:58:00;;;;;;;4.20;3.10;;;;;;;0.24;88.00;97529.48;226588;1269;22540;-75
2023/12/23 23:03:02;;;;;;;3.90;2.40;;;;;;;0.26;88.18;97534.84;226610;1271;22554;-75
2023/12/23 23:08:05;;;;;;;3.50;2.70;;;;;;;0.29;88.46;97541.58;226589;1254;22554;-75
2023/12/23 23:13:08;;;;;;;6.30;2.80;;;;;;;0.33;88.38;97547.02;226568;1267;22568;-75
2023/12/23 23:18:10;;;;;;;3.90;2.40;;;;;;;0.40;88.78;97557.18;226576;1266;23004;-75
2023/12/23 23:23:12;;;;;;;2.70;2.40;;;;;;;0.44;88.56;97559.12;226507;1272;23001;-75
2023/12/23 23:28:14;;;;;;;4.70;2.80;;;;;;;0.46;88.44;97567.30;226448;1269;109137;-75
2023/12/23 23:33:16;;;;;;;5.60;3.70;;;;;;;0.48;88.51;97578.98;226584;1269;22540;-74
2023/12/23 23:38:18;;;;;;;4.50;3.40;;;;;;;0.50;88.50;97581.95;226583;1266;22572;-75
2023/12/23 23:43:20;;;;;;;5.70;3.60;;;;;;;0.53;88.48;97580.45;226584;1270;22543;-75